x

8447387 - Borden Flats Light At Fall River, Ma (bltm3) Weather Station

11:30 - Fri 6th Mar 2015 All times are EST. -5 hours from GMT.

  • Wind
    2mph, 5mph gusts
  • Ar Temp 23°f
  • Sea Pressure 1032.4mb
  • 8447387 - Borden Flats Light At Fall River, Ma
  • 8447387 - Borden Flats Light At Fall River, Ma

More Historic Weather Station data

Upgrade to MSW Pro to gain access to the past 30 days of data for over 8000 Wavebouys and Weather Stations around the globe.

Join Pro

Comparision Forecast

View Surf forecast
   
Sex 03/06 11:30 2 5 mph 1032.4mb 23f
11:24  -  2 mph 1032.4mb 24f
11:18  -  1 mph 1032.3mb 23f
11:12 1 3 mph 1032.3mb 22f
11:06 3 5 mph 1032.2mb 24f
11:00 3 6 mph 1032.2mb 24f
10:54 5 7 mph 1032.1mb 24f
10:48 5 7 mph 1032.2mb 23f
10:42 3 5 mph 1032.2mb 21f
10:36 3 5 mph 1032.3mb 20f
10:30 5 7 mph 1032.3mb 23f
10:24 5 7 mph 1032.2mb 22f
10:18 5 6 mph 1032.2mb 21f
10:12 5 6 mph 1032.2mb 21f
10:06 6 8 mph 1032.3mb 20f
10:00 6 8 mph 1032.4mb 20f
9:54 7 9 mph 1032.3mb 20f
9:48 7 10 mph 1032.5mb 19f
9:42 9 10 mph 1032.4mb 19f
9:36 8 11 mph 1032.4mb 18f
9:30 7 10 mph 1032.5mb 18f
9:24 7 10 mph 1032.5mb 17f
9:18 8 11 mph 1032.4mb 17f
9:12 6 9 mph 1032.5mb 17f
9:06 8 11 mph 1032.5mb 17f
9:00 8 10 mph 1032.5mb 16f
8:54 9 11 mph 1032.4mb 16f
8:48 10 11 mph 1032.5mb 15f
8:42 9 11 mph 1032.5mb 15f
8:36 9 11 mph 1032.5mb 15f
8:30 7 14 mph 1032.5mb 15f
8:24 9 11 mph 1032.4mb 14f
8:18 10 13 mph 1032.4mb 14f
8:12 10 16 mph 1032.3mb 14f
8:06 9 14 mph 1032.4mb 13f
8:00 6 8 mph 1032.3mb 13f
7:54 8 11 mph 1032.3mb 13f
7:48 9 13 mph 1032.1mb 13f
7:42 9 11 mph 1032.2mb 12f
7:36 8 10 mph 1032.1mb 12f
7:30 6 8 mph 1032mb 12f
7:24 6 9 mph 1031.8mb 12f
7:18 6 9 mph 1031.7mb 11f
7:12 7 11 mph 1031.7mb 11f
7:06 6 10 mph 1031.6mb 11f
7:00 7 11 mph 1031.6mb 11f
6:54 8 10 mph 1031.4mb 11f
6:48 7 9 mph 1031.3mb 11f
6:42 6 8 mph 1031.3mb 11f
6:36 7 9 mph 1031.3mb 11f
6:30 7 11 mph 1031.2mb 11f
6:24 7 9 mph 1031.1mb 11f
6:18 8 11 mph 1031mb 11f
6:12 8 10 mph 1031mb 11f
6:06 8 11 mph 1031mb 11f
6:00 8 10 mph 1030.9mb 11f
5:54 8 10 mph 1030.8mb 11f
5:48 9 13 mph 1030.6mb 11f
5:42 9 13 mph 1030.7mb 11f
5:36 8 10 mph 1030.5mb 11f
5:30 7 10 mph 1030.3mb 12f
5:24 7 10 mph 1030.2mb 12f
5:18 6 11 mph 1030.1mb 12f
5:12 8 10 mph 1030mb 12f
5:06 10 14 mph 1029.9mb 12f
5:00 9 11 mph 1029.8mb 12f
4:54 11 14 mph 1029.6mb 12f
4:48  -  mph 1029.6mb -
4:42  -  mph 1029.5mb -
4:36  -  mph 1029.4mb -
4:30 7 10 mph 1029.3mb 13f
4:24 8 11 mph 1029.3mb 13f
4:18 10 14 mph 1029.2mb 13f
4:12 10 14 mph 1029.1mb 14f
4:06 8 13 mph 1029mb 14f
4:00 8 10 mph 1028.9mb 14f
3:54 7 10 mph 1028.8mb 14f
3:48  -  mph 1028.7mb 14f
3:42  -  mph 1028.5mb 14f
3:36  -  mph 1028.5mb 15f
3:30 8 15 mph 1028.4mb 15f
3:24 8 11 mph 1028.3mb 15f
3:18 8 11 mph 1028.1mb 15f
3:12 8 10 mph 1028.1mb 15f
3:06 8 10 mph 1027.9mb 15f
3:00 10 13 mph 1027.9mb 15f
2:54 8 13 mph 1027.9mb 16f
2:48 9 13 mph 1027.9mb 16f
2:42 9 13 mph 1027.7mb 16f
2:36 7 9 mph 1027.6mb 16f
2:30 8 11 mph 1027.5mb 17f
2:24 9 13 mph 1027.5mb 17f
2:18 10 13 mph 1027.4mb 17f
2:12 10 14 mph 1027.4mb 17f
2:06 9 13 mph 1027.4mb 17f
2:00  -  mph 1027.4mb -
1:54  -  mph 1027.3mb -
1:48 9 11 mph 1027.1mb -
1:42 8 11 mph 1027.1mb -
1:36 10 14 mph 1027mb -
1:30 11 16 mph 1026.8mb 19f
1:24 11 15 mph 1026.9mb 19f
1:18 13 16 mph 1026.7mb 19f
1:12 11 15 mph 1026.6mb 19f
1:06 9 13 mph 1026.4mb 19f
1:00 8 11 mph 1026.4mb 20f
12:54 9 11 mph 1026.3mb 20f
12:48 10 14 mph 1026.1mb 20f
12:42 10 14 mph 1026.1mb 20f
12:36 10 13 mph 1025.8mb 21f
12:30 9 11 mph 1025.9mb 21f
12:24 9 13 mph 1025.7mb 21f
12:18 10 13 mph 1025.5mb 21f
12:12 9 13 mph 1025.5mb 21f
12:06 10 13 mph 1025.3mb 21f
12:00 11 15 mph 1025.3mb 21f
Qui 03/05 11:54 9 11 mph 1025.2mb 21f
11:48 9 14 mph 1025.2mb 21f
11:42 9 11 mph 1024.9mb 22f
11:36 10 14 mph 1024.9mb 22f
11:30 8 13 mph 1024.9mb 22f
11:24 8 10 mph 1024.9mb 22f
11:18 6 8 mph 1025.1mb 22f
11:12 6 8 mph 1024.7mb 22f
11:06 7 9 mph 1024.5mb 22f
11:00 8 10 mph 1024.6mb 22f
10:54 7 8 mph 1024.4mb 22f
10:48 7 10 mph 1024.5mb 22f
10:42 8 10 mph 1024.3mb 22f
10:36 7 10 mph 1024.4mb 22f
10:30 8 11 mph 1024.6mb 22f
10:24 7 9 mph 1024.5mb 22f
10:18 7 9 mph 1024.4mb 22f
10:12 6 8 mph 1024.4mb 23f
10:06 7 10 mph 1024.2mb 23f
10:00 7 10 mph 1024.4mb 23f
9:54 8 11 mph 1024.1mb 23f
9:48 8 10 mph 1024mb 23f
9:42 8 11 mph 1023.8mb 23f
9:36 9 13 mph 1023.6mb 23f
9:30 9 13 mph 1023.5mb 23f
9:24 10 15 mph 1023.4mb 23f
9:18 9 13 mph 1023.3mb 23f
9:12 8 13 mph 1022.9mb 24f
9:06 7 9 mph 1023mb 24f
9:00 8 10 mph 1022.6mb 24f
8:54 9 13 mph 1022.7mb 24f
8:48 8 10 mph 1022.8mb 24f
8:42 7 10 mph 1022.6mb 24f
8:36 8 10 mph 1022.5mb 24f
8:30 7 8 mph 1022.6mb 24f
8:24 8 10 mph 1022.5mb 24f
8:18 8 10 mph 1022.3mb 24f
8:12 8 11 mph 1021.9mb 24f
8:06 8 9 mph 1021.8mb 24f
8:00 9 11 mph 1022.2mb 24f
7:54 8 9 mph 1021.8mb 24f
7:48 7 8 mph 1021.7mb 24f
7:42 7 8 mph 1021.9mb 24f
7:36 6 7 mph 1021.8mb 24f
7:30 6 7 mph 1021.9mb 24f
7:24 6
mph
1022.2mb 24f
7:18 5 7 mph 1021.7mb 24f
7:12 3 5 mph 1021.6mb 24f
7:06 5 6 mph 1021.8mb 24f
7:00 2 3 mph 1021.7mb 24f
6:54 2 3 mph 1022.2mb 24f
6:48 2 3 mph 1021.8mb 23f
6:42 5 6 mph 1021.3mb 23f
6:36 3 6 mph 1021.1mb 23f
6:30 6 7 mph 1020.5mb 23f
6:24 7 8 mph 1020.8mb 23f
6:18 6 7 mph 1021.1mb 23f
6:12 7 8 mph 1021.1mb 23f
6:06 7 9 mph 1021mb 23f
6:00 7 9 mph 1020.4mb 24f
5:54 9 13 mph 1020.5mb 24f
5:48 9 13 mph 1020.2mb 24f
5:42 7 9 mph 1020.2mb 25f
5:36 3 6 mph 1019.9mb 25f
5:30 5 6 mph 1020.2mb 25f
5:24 3
mph
1020.1mb 25f
5:18 3 5 mph 1020.3mb 25f
5:12 5 6 mph 1020.3mb 25f
5:06 5 6 mph 1020.1mb 25f
5:00 5 6 mph 1019.8mb 25f
4:54 2 5 mph 1019.6mb 25f
4:48 2 3 mph 1019.4mb 25f
4:42 5 6 mph 1019.3mb 25f
4:36 3 6 mph 1019.4mb 25f
4:30 5 6 mph 1019.7mb 25f
4:24 2 3 mph 1020mb 25f
4:18 2 3 mph 1020mb 25f
4:12 2 3 mph 1019.7mb 25f
4:06 3 5 mph 1019.6mb 26f
4:00 2 3 mph 1019.3mb 26f
3:54 3 6 mph 1019.3mb 26f
3:48 1 2 mph 1019.2mb 26f
3:42 2 3 mph 1019.4mb 26f
3:36 3 5 mph 1019.2mb 26f
3:30  -  1 mph 1019.3mb 25f
3:24  -  1 mph 1019.6mb 25f
3:18 2 3 mph 1019.7mb 25f
3:12 2 3 mph 1019.5mb 25f
3:06 2
mph
1019.2mb 25f
3:00 2 3 mph 1019.1mb 25f
2:54 1 3 mph 1018.9mb 25f
2:48 1 2 mph 1018.8mb 26f
2:42 2 3 mph 1018.5mb 26f
2:36 3 5 mph 1018.2mb 26f
2:30 6 7 mph 1017.7mb 26f
2:24 2 6 mph 1018.4mb 25f
2:18 5 6 mph 1019.2mb 25f
2:12 2
mph
1019.2mb 25f
2:06 1 2 mph 1018.9mb 25f
2:00  -  1 mph 1018.6mb 26f
1:54 3 5 mph 1018.7mb 26f
1:48 5 7 mph 1018.6mb 26f
1:42 6 8 mph 1019mb 26f
1:36 7 8 mph 1018.8mb 26f
1:30 7 9 mph 1019mb 26f
1:24 7 8 mph 1019mb 26f
1:18 7 9 mph 1019.2mb 26f
1:12 8 10 mph 1019mb 26f
1:06 9 11 mph 1018.8mb 26f
1:00 9 13 mph 1018.7mb 26f
12:54 11 14 mph 1018.4mb 26f
12:48 11 16 mph 1018.3mb 26f
12:42 11 15 mph 1018.4mb 26f
12:36 14 17 mph 1018mb 26f
12:30 17 22 mph 1017.8mb 27f
12:24 13 16 mph 1017.6mb 27f
12:18 11 14 mph 1017.4mb 27f
12:12 13 15 mph 1017.3mb 27f
12:06 13 16 mph 1017.1mb 28f
12:00 9 14 mph 1017.3mb 28f
11:54 10 15 mph 1017.2mb 28f
11:48 8 10 mph 1017.4mb 28f
11:42 8 11 mph 1017.3mb 28f
11:36 11 14 mph 1017.6mb 28f
11:30 11 15 mph 1017.7mb 28f
11:24 13 17 mph 1017.8mb 28f
11:18 13 17 mph 1017.8mb 28f
11:12 13 16 mph 1017.8mb 28f
11:06 10 14 mph 1018mb 29f
11:00 8 10 mph 1018mb 29f
10:54 11 14 mph 1017.9mb 28f
10:48 14 17 mph 1018.1mb 28f
10:42 14 20 mph 1018mb 29f
10:36 9 14 mph 1018mb 29f
10:30 9 11 mph 1017.7mb 29f
10:24 8 11 mph 1017.8mb 29f
10:18 9 11 mph 1017.8mb 29f
10:12 9 11 mph 1017.4mb 29f
10:06 9 14 mph 1017.3mb 29f
10:00 9 11 mph 1017.7mb 29f
9:54 11 15 mph 1017.9mb 29f
9:48 15 20 mph 1017.9mb 29f
9:42 15 22 mph 1017.7mb 29f
9:36 21 31 mph 1017.4mb 29f
9:30 20 26 mph 1017.1mb 29f
9:24 16 21 mph 1016.9mb 31f
9:18 16 22 mph 1016.9mb 31f
9:12 11 14 mph 1016.8mb 31f
9:06 9 13 mph 1017.1mb 31f
9:00 7 9 mph 1016.9mb 31f
8:54 8 11 mph 1016.7mb 32f
8:48 5 7 mph 1016.5mb 32f
8:42 5 6 mph 1016.6mb 32f
8:36 5
mph
1016.5mb 32f
8:30 6 8 mph 1016.4mb 31f
8:24 6 9 mph 1016.3mb 31f
8:18 8 10 mph 1016.6mb 31f
8:12 7 10 mph 1016.1mb 31f
8:06 7 9 mph 1016.1mb 31f
8:00 7 9 mph 1015.7mb 31f
7:54 8 11 mph 1016mb 31f
7:48 9 13 mph 1015.8mb 31f
7:42 7 8 mph 1015.8mb 32f
7:36 5 6 mph 1015.6mb 32f
7:30 3 5 mph 1015.4mb 32f
7:24 5 6 mph 1015.4mb 32f
7:18 6 7 mph 1015.2mb 32f
7:12 7 10 mph 1015.1mb 31f
7:06 7 9 mph 1015.2mb 32f
7:00 6 8 mph 1014.9mb 32f
6:54 8 11 mph 1014.8mb 32f
6:48 6 10 mph 1014.8mb 32f
6:42 3 5 mph 1014.6mb 32f
6:36 6 8 mph 1014.4mb 32f
6:30 7 10 mph 1014.5mb 32f
6:24 11 14 mph 1014.7mb 32f
6:18 14 18 mph 1014.7mb 32f
6:12 13 16 mph 1014.5mb 32f
6:06 9 14 mph 1014.4mb 32f
6:00 9 13 mph 1014.6mb 32f
5:54 14 17 mph 1014.5mb 32f
5:48 14 17 mph 1014.7mb 33f
5:42 11 22 mph 1014.4mb 33f
5:36 9 15 mph 1014.2mb 33f
5:30 9 11 mph 1014.3mb 33f
5:24 5 6 mph 1014mb 33f
5:18 7 10 mph 1014mb 33f
5:12 5 6 mph 1013.7mb 33f
5:06 6 8 mph 1013.4mb 33f
5:00 3 6 mph 1012.9mb 33f
4:54 5 6 mph 1012.5mb 33f
4:48  -  mph 1012.3mb -
4:42  -  mph 1012.1mb -
4:36  -  mph 1012.2mb -
4:30 6 7 mph 1012.3mb 34f
4:24 6 8 mph 1012mb 34f
4:18 7 10 mph 1012.2mb 34f
4:12 8 15 mph 1012.4mb 34f
4:06 3 5 mph 1012.4mb 34f
4:00 5 7 mph 1012.5mb 34f
3:54 8 10 mph 1012.2mb 35f
3:48 8 9 mph - 35f
3:42 9 11 mph - 35f
3:36 6 9 mph - 35f
3:30 8 9 mph 1011.4mb 35f
3:24 9 11 mph 1011.3mb 35f
3:18 7 9 mph 1011.3mb 35f
3:12 8 11 mph 1011mb 36f
3:06 8 10 mph 1010.9mb 36f
3:00 7 8 mph 1010.7mb 36f
2:54 5 6 mph 1010.8mb 36f
2:48 5 6 mph 1010.7mb 36f
2:42 5 6 mph 1010.7mb 37f
2:36 6 8 mph 1010.7mb 37f
2:30 9 11 mph 1010.8mb 37f
2:24 9 14 mph 1010.7mb 37f
2:18 5 7 mph 1010.6mb -
2:12  -  2 mph 1010.6mb 36f
2:06  -  2 mph 1010.6mb 36f
2:00 2 5 mph - 35f
1:54 2 5 mph - 35f
1:48 6 7 mph 1010.7mb 35f
1:42 7 8 mph 1010.8mb 36f
1:36 7 8 mph 1010.7mb 36f
1:30 7 8 mph 1010.6mb 37f
1:24 7 8 mph 1010.5mb 38f
1:18 8 9 mph 1010.6mb 38f
1:12 7 8 mph 1010.4mb 38f
1:06 8 9 mph 1010.6mb 38f
1:00 9 10 mph 1010.7mb 38f
12:54 8 9 mph 1010.4mb 38f
12:48 8 10 mph 1010.4mb 38f
12:42 8 9 mph 1010.4mb 38f
12:36 8 9 mph 1010.4mb 38f
12:30 8 10 mph 1010.4mb 38f
12:24 8 9 mph 1010.5mb 37f
12:18 8 10 mph 1010.7mb 37f
12:12 9 10 mph 1010.9mb 37f
12:06 9 10 mph 1010.8mb 37f
12:00 10
mph
1010.9mb 35f
Qua 03/04 11:54 10 11 mph 1011mb 36f
11:48 9 10 mph 1010.9mb 36f
11:42 9 10 mph 1010.8mb 36f
11:36 9 10 mph 1010.8mb 37f
11:30 9 11 mph 1010.8mb 37f
11:24 10 11 mph 1010.7mb 36f
11:18 10 11 mph 1010.9mb 36f
11:12 9 10 mph 1010.8mb 36f
11:06 9 10 mph 1010.7mb 36f
11:00 9 10 mph 1010.8mb 36f
10:54 11 13 mph 1010.8mb 38f
10:48 13 14 mph 1010.8mb 38f
10:42 13 14 mph 1010.8mb 38f
10:36 14 16 mph 1010.8mb 39f
10:30 14 16 mph 1010.7mb 39f
10:24 14 16 mph 1010.8mb 39f
10:18 14 16 mph 1010.8mb 38f
10:12 13 15 mph 1010.8mb 38f
10:06 13 14 mph 1010.9mb 38f
10:00 11 14 mph 1011mb 38f
9:54 11 14 mph 1010.7mb 38f
9:48 10 13 mph 1010.4mb 38f
9:42 10 13 mph 1010.5mb 37f
9:36 10 11 mph 1010.7mb 36f
9:30 9
mph
1010.8mb 35f
9:24 8 10 mph 1010.9mb 35f
9:18 9
mph
1010.8mb 35f
9:12 9
mph
1010.5mb 35f
9:06 8 9 mph 1010.3mb 36f
9:00 9 10 mph 1010.1mb 38f
8:54 9 11 mph 1009.9mb 38f
8:48 10 13 mph 1010mb 38f
8:42 11 14 mph 1009.8mb 39f
8:36 11 14 mph 1009.6mb 39f
8:30 10 11 mph 1009.5mb 39f
8:24 11 13 mph 1009.5mb 39f
8:18 11 14 mph 1009.5mb 39f
8:12 11 14 mph 1009.4mb 39f
8:06 11 15 mph 1009.4mb 39f
8:00 11 14 mph 1009.5mb 39f
7:54 10 13 mph 1009.6mb 39f
7:48 10 14 mph 1009.7mb 39f
7:42 10 13 mph 1009.8mb 39f
7:36 9 11 mph 1009.9mb 39f
7:30 9 11 mph 1010.1mb 39f
7:24 9 13 mph 1010.4mb 38f
7:18 11 14 mph 1010.6mb 36f
7:12 13 14 mph 1010.8mb 36f
7:06 11 13 mph 1010.7mb 36f
7:00 11 13 mph 1010.8mb 36f
6:54 11 13 mph 1010.4mb 37f
6:48 10 13 mph 1010.2mb 37f
6:42 10 13 mph 1010.2mb 37f
6:36 10 13 mph 1010.4mb 37f
6:30 10 11 mph 1010.2mb 36f
6:24 10 11 mph 1010.6mb 36f
6:18 10 13 mph 1010.3mb 37f
6:12 9 11 mph 1009.6mb 36f
6:06 9 10 mph 1009.6mb 37f
6:00 10 13 mph 1009.2mb 38f
5:54 10 11 mph 1009.2mb 36f
5:48 11
mph
1009.7mb 36f
5:42 11 13 mph 1009.7mb 37f
5:36 11
mph
1009.9mb 37f
5:30 11 14 mph 1009.7mb 39f
5:24 13 15 mph 1009.6mb 40f
5:18 13 15 mph 1009.4mb 39f
5:12 13 15 mph 1009.6mb 38f
5:06 13 14 mph 1009.7mb 37f
5:00 14 15 mph 1009.6mb 36f
4:54 14 16 mph 1009.4mb 36f
4:48 11 13 mph 1009.3mb 36f
4:42 13 14 mph 1009.3mb 35f
4:36 10 11 mph 1009.1mb 36f
4:30 10 11 mph 1009.1mb 36f
4:24 13 14 mph 1009.5mb 37f
4:18 14 15 mph 1009.3mb 39f
4:12 13 14 mph 1009.3mb 39f
4:06 14
mph
1009.1mb 40f
4:00 11 14 mph 1008.7mb 40f
3:54 11 13 mph 1008.5mb 40f
3:48 11 13 mph 1008.3mb 41f
3:42 9 11 mph 1008mb 41f
3:36 9
mph
1008mb 41f
3:30 9 10 mph 1007.7mb 41f
3:24 9 10 mph 1007.8mb 40f
3:18 9 10 mph 1007.9mb 40f
3:12 9 10 mph 1007.9mb 40f
3:06 10
mph
1007.9mb 39f
3:00 9 10 mph 1008.1mb 38f
2:54 9 11 mph 1008.4mb 38f
2:48 9 11 mph 1008.3mb 38f
2:42 9 10 mph 1008.4mb 37f
2:36 10 11 mph 1008.4mb 38f
2:30 10 11 mph 1008mb 37f
2:24 11
mph
1008.1mb 36f
2:18 11 13 mph 1008.3mb 36f
2:12 11 13 mph 1008.1mb 36f
2:06 13
mph
1008.5mb 37f
2:00 10 11 mph 1008.4mb 35f
1:54 9 10 mph 1007.9mb 36f
1:48 10 11 mph 1008.2mb 36f
1:42 11 13 mph 1008.2mb 37f
1:36 13 14 mph 1008.2mb 36f
1:30 14
mph
1008.8mb 36f
1:24 10 13 mph 1008.5mb 37f
1:18 11 14 mph 1008.2mb 38f
1:12 10 11 mph 1008.1mb 38f
1:06 10 11 mph 1008.2mb 38f
1:00 11 13 mph 1008.4mb 38f
12:54 13 14 mph 1008.2mb 38f
12:48 11 13 mph 1008.4mb 37f
12:42 11 14 mph 1008.3mb 37f
12:36 10 11 mph 1008.5mb 37f
12:30 9 10 mph 1008.7mb 37f
12:24 9 11 mph 1008.6mb 40f
12:18 10 11 mph 1008.6mb -
12:12 10 13 mph 1008.7mb -
12:06 11 14 mph 1009mb -
12:00 13 14 mph 1009.1mb 39f
11:54 14 16 mph 1008.9mb 39f
11:48 13 15 mph 1009.1mb 40f
11:42 11 14 mph 1008.8mb 39f
11:36 10 13 mph 1008.9mb 38f
11:30 13 14 mph 1009mb 38f
11:24 11 13 mph 1009mb 38f
11:18 10 13 mph 1008.6mb 38f
11:12 10 14 mph 1008.5mb 37f
11:06 9 11 mph 1008.7mb 37f
11:00 9 11 mph 1008.9mb 37f
10:54 9 11 mph 1008.7mb 39f
10:48 9 13 mph 1008.3mb 39f
10:42 10 13 mph 1008.5mb 39f
10:36 11 14 mph 1008.6mb 38f
10:30 13 14 mph 1009mb 38f
10:24 13 14 mph 1008.9mb 38f
10:18 10 13 mph 1008.5mb 38f
10:12 11 14 mph 1008.4mb 38f
10:06 9 11 mph 1008.4mb 38f
10:00 10 13 mph 1008.3mb 38f
9:54 10 13 mph 1008.5mb 38f
9:48 10 11 mph 1008.3mb 37f
9:42 10 13 mph 1008.1mb 37f
9:36 10 11 mph 1008.3mb 37f
9:30 10 11 mph 1008.4mb 37f
9:24 11 13 mph 1008.1mb 37f
9:18 10 13 mph 1008mb 37f
9:12 10 11 mph 1008mb 37f
9:06 10 11 mph 1008.3mb 36f
9:00 10 11 mph 1008.3mb 36f
8:54 9 10 mph 1008.1mb 36f
8:48 9 10 mph 1007.8mb 36f
8:42 9 10 mph 1007.5mb 36f
8:36 8 9 mph 1007.5mb 36f
8:30 8 9 mph 1007.4mb 36f
8:24 9 10 mph 1007.2mb 36f
8:18 9 10 mph 1007.5mb 36f
8:12 10 11 mph 1007.4mb 36f
8:06 10 11 mph 1007.3mb 35f
8:00 10 11 mph 1007.1mb 35f
7:54 11
mph
1007mb 35f
7:48 13
mph
1006.9mb 35f
7:42 11
mph
1006.6mb 35f
7:36 9 10 mph 1006.4mb 35f
7:30 9 10 mph 1006.5mb 35f
7:24 11 13 mph 1006.6mb 35f
7:18 11 14 mph 1006.6mb 35f
7:12 13 16 mph 1006.4mb 35f
7:06 14 18 mph 1006.3mb 36f
7:00 15 17 mph 1006.2mb 35f
6:54 14 16 mph 1006.3mb 35f
6:48 14 17 mph 1006.2mb 35f
6:42 15 16 mph 1006.2mb 35f
6:36 14 15 mph 1006.2mb 35f
6:30 16 18 mph 1006.2mb 35f
6:24 16 18 mph 1006mb 35f
6:18 15 17 mph 1005.8mb 36f
6:12 14 17 mph 1005.4mb 36f
6:06 15 17 mph 1005.5mb 35f
6:00 15 16 mph 1005.9mb 35f
5:54 16 17 mph 1005.9mb 35f
5:48 16 18 mph 1005.7mb 35f
5:42 16 17 mph 1005.5mb 35f
5:36 17 18 mph 1005.4mb 35f
5:30 15 17 mph 1005.4mb 35f
5:24 14 15 mph 1005.3mb 35f
5:18 13 15 mph 1005.1mb 35f
5:12 13 14 mph 1005.2mb 35f
5:06 11 14 mph 1005.1mb 35f
5:00 14 15 mph 1005mb 36f
4:54 13 14 mph 1004.8mb 35f
4:48 14 15 mph 1004.7mb 35f
4:42 13 15 mph 1004.6mb 35f
4:36 15 16 mph 1005mb 36f
4:30 14 16 mph 1004.8mb 36f
4:24 17 18 mph 1004.9mb 37f
4:18 17 22 mph 1004.9mb 37f
4:12 18 21 mph 1004.9mb 37f
4:06 18 22 mph 1004.7mb 38f
4:00 22 24 mph 1004.7mb 38f
3:54 23 25 mph 1004.9mb 38f
3:48 23 26 mph 1004.7mb 38f
3:42 24 26 mph 1004.7mb 38f
3:36 24 28 mph 1004.3mb 39f
3:30 25 28 mph 1004.1mb 38f
3:24 25 28 mph 1004.1mb 39f
3:18 25 28 mph 1004.5mb 39f
3:12 26 31 mph 1004.7mb 40f
3:06 24 31 mph 1005mb 39f
3:00 24 28 mph 1005.1mb 38f
2:54 24 29 mph 1005mb 38f
2:48 28 32 mph 1004.8mb 40f
2:42 28 32 mph 1004.6mb 40f
2:36 29 34 mph 1004.5mb 40f
2:30 28 33 mph 1004.6mb 41f
2:24 29 36 mph 1004.8mb 41f
2:18 31 38 mph 1004.5mb 43f
2:12 28 41 mph 1004.6mb 43f
2:06 29 40 mph 1004.6mb 43f
2:00 26 33 mph 1005.2mb 43f
1:54 28 34 mph 1005.5mb 43f
1:48 25 32 mph 1005.5mb 43f
1:42 25 31 mph 1005.4mb 43f
1:36 24 32 mph 1006.2mb 42f
1:30 24 33 mph 1006.2mb 42f
1:24 21 24 mph 1006.7mb 40f
1:18 22 29 mph 1006.7mb 42f
1:12 23 30 mph 1006.7mb 42f
1:06 22 29 mph 1006.8mb 41f
1:00 22 29 mph 1006.8mb 42f
12:54 22 29 mph 1007mb 42f
12:48 20 26 mph 1007.3mb 41f
12:42 22 29 mph 1007.5mb 41f
12:36 22 30 mph 1007.6mb 41f
12:30 23 30 mph 1007.8mb 40f
12:24 22 29 mph 1008.1mb 40f
12:18 21 29 mph 1008.2mb 39f
12:12 21 30 mph 1008.5mb 39f
12:06 18 28 mph 1008.8mb 39f
12:00 18 25 mph 1009.4mb 39f
Ter 03/03 11:54 17 24 mph 1009.6mb 39f
11:48 20 26 mph 1009.6mb 39f
11:42 18 25 mph 1010mb 39f
11:36 21 25 mph 1010mb 38f
11:30 21 29 mph 1009.9mb 38f
11:24 20 28 mph 1010.2mb 37f
11:18 21 28 mph 1010.4mb 37f
11:12 20 30 mph 1010.6mb 37f
11:06 18 25 mph 1011.1mb 36f
11:00 17 29 mph 1011.2mb 36f
10:54 21 32 mph 1011.2mb 35f
10:48 17 26 mph 1011.5mb 35f
10:42 20 28 mph 1011.6mb 34f
10:36 18 24 mph 1012.3mb 34f
10:30 17 28 mph 1012.9mb 34f
10:24 18 29 mph 1012.9mb 34f
10:18 21 28 mph 1013mb 34f
10:12 17 25 mph 1013.4mb 34f
10:06 16 24 mph 1013.7mb 34f
10:00 18 28 mph 1013.9mb 34f
9:54 13 20 mph 1014.2mb 33f
9:48 14 20 mph 1014.3mb 33f
9:42 14 20 mph 1014.5mb 33f
9:36 14 18 mph 1014.6mb 33f
9:30 14 18 mph 1014.7mb 33f
9:24 11 16 mph 1015.1mb 32f
9:18 13 18 mph 1015.2mb 32f
9:12 10 14 mph 1015.5mb 31f
9:06 11 20 mph 1015.9mb 31f
9:00 9 13 mph 1016.2mb 31f
8:54 11 17 mph 1016.2mb 31f
8:48 9 13 mph 1016.5mb 31f
8:42 10 17 mph 1016.7mb 31f
8:36 11 16 mph 1016.9mb 31f
8:30 8 13 mph 1017.1mb 30f
8:24 11 15 mph 1017.2mb 30f
8:18 10 14 mph 1017.3mb 30f
8:12 9 15 mph 1017.4mb 30f
8:06 10 14 mph 1017.7mb 30f
8:00 14 21 mph 1018mb 30f
7:54 11 14 mph 1018.3mb 30f
7:48 9 11 mph 1018.5mb 29f
7:42 11 14 mph 1018.9mb 29f
7:36 9 13 mph 1019.2mb 29f
7:30 7 13 mph 1019.3mb 28f
7:24 5 7 mph 1019.7mb 27f
7:18 7 9 mph 1019.9mb 27f
7:12 7 9 mph 1020mb 27f
7:06 6 8 mph 1020.1mb 27f
7:00 7 10 mph 1020.4mb 27f
6:54 6 9 mph 1020.6mb 27f
6:48 6 7 mph 1020.8mb 27f
6:42 6
mph
1020.9mb 27f
6:36 8 10 mph 1020.9mb 27f
6:30 9 11 mph 1021.1mb 27f
6:24 9 13 mph 1021.5mb 27f
6:18 14 16 mph 1021.6mb 27f
6:12 13 15 mph 1021.8mb 27f
6:06 15 20 mph 1021.8mb 28f
6:00 11 14 mph 1021.9mb 28f
5:54 10 14 mph 1022.1mb 28f
5:48 11 14 mph 1022.1mb 28f
5:42 11 14 mph 1022.3mb 28f
5:36 11 14 mph 1022.4mb 28f
5:30 13 15 mph 1022.5mb 28f
5:24 14 16 mph 1022.7mb 28f
5:18 14 16 mph 1022.8mb 28f
5:12 14 17 mph 1022.8mb 28f
5:06 16 22 mph 1022.7mb 28f
5:00 17 22 mph 1022.9mb 28f
4:54 18 23 mph 1022.8mb 28f
4:48 16 20 mph 1023mb 28f
4:42 15 22 mph 1023.3mb 28f
4:36 13 16 mph 1023.4mb 28f
4:30 16 23 mph 1023.4mb 28f
4:24 11 15 mph 1023.6mb 28f
4:18 15 18 mph 1023.6mb 28f
4:12 15 21 mph 1023.9mb 28f
4:06 14 21 mph 1024.1mb 28f
4:00 16 22 mph 1024.3mb 28f
3:54 15 18 mph 1024.6mb 28f
3:48 13 18 mph 1024.7mb 28f
3:42 15 20 mph 1024.8mb 28f
3:36 15 20 mph 1024.8mb 28f
3:30 13 18 mph 1024.9mb 28f
3:24 9 14 mph 1024.8mb 28f
3:18 10 13 mph 1024.7mb 29f
3:12 10 15 mph 1024.8mb 29f
3:06 11 15 mph 1024.9mb 29f
3:00 13 15 mph 1025.1mb 29f
2:54 9 13 mph 1025.1mb 29f
2:48 8 10 mph 1025.1mb 29f
2:42 9 13 mph 1025.4mb 29f
2:36 9 10 mph 1025.4mb 29f
2:30 9 11 mph 1025.4mb 29f
2:24 9 11 mph 1025.5mb 29f
2:18 7 10 mph 1025.5mb 29f
2:12 9 11 mph 1025.6mb 29f
2:06 10 14 mph 1025.7mb 29f
2:00 9 13 mph 1025.9mb 29f
1:54 9 10 mph 1026.1mb 29f
1:48 8 9 mph 1026.2mb 28f
1:42 7 8 mph 1026.5mb 28f
1:36 7 8 mph 1026.5mb 28f
1:30 6 7 mph 1026.8mb 28f
1:24 7 8 mph 1026.7mb 28f
1:18 8 9 mph 1027mb 28f
1:12 8 9 mph 1027.2mb 28f
1:06 7 9 mph 1027.2mb 28f
1:00 7
mph
1027.5mb 28f
12:54 5 6 mph 1027.7mb 28f
12:48 6 7 mph 1027.7mb 27f
12:42 7 8 mph 1028mb 27f
12:36 7 8 mph 1028.1mb 27f
12:30 8
mph
1028.2mb 27f
12:24 7 8 mph 1028.4mb 27f
12:18 8 9 mph 1028.4mb 27f
12:12 8 9 mph 1028.3mb 27f
12:06 8 9 mph 1028.6mb 27f
12:00 7 8 mph 1028.5mb 27f
11:54 6 8 mph 1028.8mb 27f
11:48 7 8 mph 1028.6mb 26f
11:42 9 10 mph 1028.7mb 26f
11:36 9 10 mph 1028.8mb 26f
11:30 7 9 mph 1028.7mb -
11:24 7 9 mph 1028.8mb -
11:18 8 9 mph - 26f
11:12 8 9 mph - 26f
11:06 8 9 mph - 26f
11:00  -  mph 1028.9mb 26f
10:54  -  mph 1029.1mb 26f
10:48 8 9 mph - 26f
10:42 9 13 mph - 26f
10:36 9 11 mph - 26f
10:30 8 11 mph - 26f
10:24 8 10 mph - 25f
10:18  -  mph 1029.3mb 25f
10:12  -  mph 1029.4mb 26f
10:06  -  mph 1029.3mb 26f
10:00 8 10 mph - 26f
9:54 10 11 mph - 25f
9:48 7 9 mph - -
9:42 9 10 mph - -
9:36 8 10 mph - -
9:30  -  mph - 25f
9:24  -  mph - 25f
9:18 6 7 mph - -
9:12 6 7 mph - -
9:06 6 8 mph - -
9:00  -  mph 1029.7mb 26f
8:54  -  mph 1029.8mb 26f
8:48 5 7 mph - 25f
8:42 6 10 mph - 24f
8:36 3 6 mph - 23f
8:30 5 6 mph - 22f
8:24 6 7 mph - 22f
8:18 5 7 mph 1030.1mb 21f
8:12 7 9 mph 1030.1mb 20f
8:06 6 7 mph 1029.9mb 20f
8:00 8 9 mph - -
7:54 6 9 mph - -
7:48  -  mph 1029.7mb -
7:42  -  mph 1029.8mb -
7:36  -  mph 1029.6mb -
7:30  -  mph 1029.3mb 22f
7:24  -  mph 1029.2mb 22f
7:18  -  mph 1029.2mb 21f
7:12  -  mph 1029.1mb 21f
7:06  -  mph 1029mb 21f
7:00 6 8 mph 1028.9mb 21f
6:54 6 8 mph 1028.7mb 21f
6:48 5 7 mph - -
6:42 5 6 mph - -
6:36 6 7 mph - -
6:30 6 8 mph 1028.7mb -
6:24 8 9 mph 1028.7mb -
6:18  -  mph 1028.7mb 20f
6:12  -  mph 1028.7mb 20f
6:06  -  mph 1028.7mb 21f
6:00  -  mph 1028.7mb 20f
5:54  -  mph 1028.5mb 21f
5:48 6 7 mph - -
5:42 6 7 mph - -
5:36 7 10 mph - -
5:30  -  mph 1028.2mb -
5:24  -  mph 1028mb -
5:18 6 8 mph - 20f
5:12 6 7 mph - 20f
5:06 7 8 mph - 21f
5:00 6 7 mph 1027.6mb -
4:54 6 7 mph 1027.7mb -
4:48  -  mph 1027.7mb -
4:42  -  mph 1027.5mb -
4:36  -  mph 1027.5mb -
4:30 8 10 mph 1027.5mb 22f
4:24 7 9 mph 1027.5mb 22f
4:18  -  mph - 22f
4:12  -  mph - 22f
4:06  -  mph - 23f
4:00  -  mph 1026.9mb 23f
3:54  -  mph 1026.8mb 23f
3:48 7 8 mph 1026.8mb 23f
3:42 9 10 mph 1026.8mb 23f
3:36 7 8 mph 1026.7mb 23f
3:30 7 11 mph 1026.6mb 23f
3:24 5 7 mph 1026.6mb 23f
3:18  -  mph - 23f
3:12  -  mph - 23f
3:06  -  mph - 23f
3:00 7 9 mph 1026.3mb 23f
2:54 7 9 mph 1026.3mb 24f
2:48 6 8 mph 1026.3mb 24f
2:42 7 8 mph 1026.3mb 24f
2:36 9 11 mph 1026.1mb 24f
2:30 6 8 mph 1026.2mb 24f
2:24 6 7 mph 1026.2mb 24f
2:18  -  mph - 24f
2:12  -  mph - 25f
2:06  -  mph - 24f
2:00 6 7 mph - -
1:54 6 7 mph - -
1:48 6 8 mph 1026.2mb 25f
1:42 6 8 mph 1026.3mb 24f
1:36 3 5 mph 1026.2mb 25f
1:30 5 7 mph 1026mb 25f
1:24 6 8 mph 1026mb 25f
1:18 7 9 mph - 25f
1:12 7 8 mph - 25f
1:06 9 11 mph - 25f
1:00  -  mph - 26f
12:54  -  mph - 26f
12:48  -  mph - 26f
12:42  -  mph - 26f
12:36  -  mph - 26f
12:30  -  mph 1024.9mb -
12:24  -  mph 1024.8mb -
12:18  -  mph 1024.8mb 26f
12:12  -  mph 1024.6mb 26f
12:06  -  mph 1024.5mb 26f
12:00  -  mph 1024.5mb -
Seg 03/02 11:54  -  mph 1024.5mb -
11:48  -  mph - 27f
11:42  -  mph - 27f
11:36  -  mph - 27f
11:30  -  mph 1024.2mb 27f
11:24  -  mph 1024.1mb 27f
11:18  -  mph 1024mb 27f
11:12  -  mph 1023.9mb 28f
11:06  -  mph 1023.7mb 28f
10:54 13 17 mph 1023.6mb 28f
10:48 10 14 mph 1023.6mb 28f
10:42 13 15 mph 1023.3mb 28f
10:36 15 17 mph 1023.1mb 28f
10:30 13 16 mph 1023.1mb 28f
10:24 11 15 mph 1023.1mb 28f
10:18 11 17 mph 1023mb 28f
10:12 14 16 mph 1022.8mb 28f
10:06 16 21 mph 1022.6mb 28f
10:00  -  mph 1022.7mb 28f
9:54  -  mph 1022.7mb 28f
9:48 14 18 mph - -
9:42 14 16 mph - -
9:36 13 15 mph - -
9:30 11 14 mph - -
9:24 8 10 mph - -
9:18 9 10 mph - -
9:12 11 14 mph - -
9:06 13 17 mph - -
9:00 13 16 mph 1021.8mb 29f
8:54 14 16 mph 1021.7mb 29f
8:48  -  mph - 29f
8:42  -  mph - 29f
8:36  -  mph - 30f
8:30  -  mph - 29f
8:24  -  mph - 30f
8:18  -  mph 1021.4mb 30f
8:12  -  mph 1021.2mb 30f
8:06  -  mph 1021.2mb 30f
8:00 15 17 mph 1021.2mb -
7:54 14 18 mph 1021.1mb -
7:48 16 22 mph - -
7:42 15 18 mph - -
7:36 17 24 mph - -
7:30  -  mph 1020.8mb -
7:24  -  mph 1020.5mb -
7:18  -  mph 1020.6mb 31f
7:12  -  mph 1020.6mb 31f
7:06  -  mph 1020.3mb 31f
7:00 22 31 mph - -
6:54 21 29 mph - -
6:48 24 36 mph - -
6:42 28 34 mph - -
6:36 25 34 mph - -
6:30 25 33 mph - 32f
6:24 21 29 mph - 32f
6:18 21 28 mph 1018.9mb 32f
6:12 20 28 mph 1018.7mb 32f
6:06 20 24 mph 1018.6mb 32f
6:00 24 30 mph 1018.4mb 32f
5:54 22 31 mph 1018.2mb 32f
5:48 24 36 mph 1017.9mb 33f
5:42 25 32 mph 1017.7mb 33f
5:36 23 30 mph 1017.7mb 33f
5:30 21 31 mph 1017.6mb 33f
5:24 21 33 mph 1017.4mb 33f